Time;durP1;ratioP1;P1;durP2;ratioP2;P2;SDS_P1;SDS_P2;PMS_P1;PMS_P2;Temp;Humidity;BMP_temperature;BMP_pressure;BME280_temperature;BME280_humidity;BME280_pressure;Samples;Min_cycle;Max_cycle;Signal;HPM_P1;HPM_P2
2021/04/13 00:00:00;;;;;;;5.20;3.03;;;2.90;99.90;;;;;;4983144;28;20229;-81
2021/04/13 00:02:37;;;;;;;4.20;2.95;;;3.00;99.90;;;;;;4986830;28;20169;-82
2021/04/13 00:05:09;;;;;;;6.25;4.72;;;2.90;99.90;;;;;;4984767;28;20185;-80
2021/04/13 00:07:36;;;;;;;3.55;3.15;;;;;;;;;;4982999;28;20189;-81
2021/04/13 00:10:07;;;;;;;8.95;3.70;;;;;;;;;;4983047;28;20168;-81
2021/04/13 00:12:35;;;;;;;5.13;3.47;;;;;;;;;;4982714;28;20172;-81
2021/04/13 00:15:12;;;;;;;3.03;2.72;;;;;;;;;;4982431;28;20261;-81
2021/04/13 00:17:40;;;;;;;4.05;2.92;;;;;;;;;;4982789;28;20192;-81
2021/04/13 00:20:18;;;;;;;4.25;3.15;;;;;;;;;;4983545;28;20232;-82
2021/04/13 00:22:44;;;;;;;4.10;3.70;;;;;;;;;;4982384;28;20203;-81
2021/04/13 00:25:24;;;;;;;3.55;3.15;;;;;;;;;;4981585;28;20267;-80
2021/04/13 00:27:51;;;;;;;2.53;2.30;;;;;;;;;;4982162;28;20292;-80
2021/04/13 00:30:19;;;;;;;2.88;2.65;;;;;;;;;;4981751;28;20245;-81
2021/04/13 00:32:47;;;;;;;6.50;3.20;;;;;;;;;;4982690;28;20184;-83
2021/04/13 00:38:15;;;;;;;2.63;2.42;;;;;;;;;;4982811;28;20165;-82
2021/04/13 00:40:42;;;;;;;3.33;3.05;;;;;;;;;;4981651;28;20206;-81
2021/04/13 00:43:10;;;;;;;4.78;2.90;;;;;;;;;;4984095;28;20737;-81
2021/04/13 00:45:38;;;;;;;3.20;2.50;;;;;;;;;;4983910;28;20196;-81
2021/04/13 00:48:05;;;;;;;3.08;2.78;;;;;;;;;;4966597;28;20212;-81
2021/04/13 00:50:34;;;;;;;2.55;2.35;;;;;;;;;;4981343;28;20215;-81
2021/04/13 00:53:02;;;;;;;2.80;2.50;;;;;;;;;;4983392;28;20252;-81
2021/04/13 00:55:47;;;;;;;2.78;2.55;;;;;;;;;;4983186;28;20216;-82
2021/04/13 00:58:26;;;;;;;3.35;3.00;;;;;;;;;;4982835;28;20185;-86
2021/04/13 01:00:53;;;;;;;5.13;4.18;;;;;;;;;;4981108;28;20185;-81
2021/04/13 01:03:20;;;;;;;5.20;3.33;;;;;;;;;;4981097;28;20169;-81
2021/04/13 01:05:48;;;;;;;6.50;4.00;;;;;;;;;;4982283;28;20193;-82
2021/04/13 01:08:19;;;;;;;4.07;2.83;;;;;;;;;;4981459;28;20209;-81
2021/04/13 01:10:45;;;;;;;3.67;2.42;;;;;;;;;;4980883;28;20522;-80
2021/04/13 01:13:20;;;;;;;3.08;2.80;;;;;;;;;;4982403;28;20659;-81
2021/04/13 01:15:49;;;;;;;3.10;2.58;;;;;;;;;;4981394;28;20192;-81
2021/04/13 01:18:20;;;;;;;3.65;3.35;;;;;;;;;;4982402;28;20236;-81
2021/04/13 01:21:15;;;;;;;6.05;3.65;;;;;;;;;;4982985;28;20180;-81
2021/04/13 01:24:29;;;;;;;2.90;2.70;;;;;;;;;;4982741;28;20166;-81
2021/04/13 01:26:35;;;;;;;3.80;3.50;;;;;;;;;;4979551;28;20197;-81
2021/04/13 01:29:01;;;;;;;3.00;2.80;;;;;;;;;;4967924;28;20189;-81
2021/04/13 01:31:44;;;;;;;3.53;3.22;;;;;;;;;;4986635;28;20181;-79
2021/04/13 01:34:23;;;;;;;4.72;3.00;;;;;;;;;;4990580;28;20208;-80
2021/04/13 01:37:02;;;;;;;4.38;3.50;;;;;;;;;;4988725;28;20181;-80
2021/04/13 01:39:32;;;;;;;5.68;3.20;;;;;;;;;;4988869;28;20247;-80
2021/04/13 01:41:59;;;;;;;5.43;4.90;;;;;;;;;;4988000;28;20276;-80
2021/04/13 01:44:36;;;;;;;8.48;4.25;;;;;;;;;;4990935;28;20196;-80
2021/04/13 01:47:03;;;;;;;8.07;3.75;;;;;;;;;;4990602;28;20177;-80
2021/04/13 01:49:31;;;;;;;4.40;4.03;;;;;;;;;;4990580;28;20173;-80
2021/04/13 01:51:58;;;;;;;7.75;4.28;;;;;;;;;;4990492;28;20169;-80
2021/04/13 01:54:24;;;;;;;4.93;4.53;;;;;;;;;;5031809;23;20308;-85
2021/04/13 01:57:04;;;;;;;4.05;3.75;;;;;;;;;;4962897;28;20187;-85
2021/04/13 01:59:43;;;;;;;5.20;4.53;;;;;;;;;;4963513;28;20201;-82
2021/04/13 02:02:28;;;;;;;5.13;4.72;;;;;;;;;;4968001;28;20258;-85
2021/04/13 02:05:02;;;;;;;6.78;4.68;;;;;;;;;;4963695;29;20190;-85
2021/04/13 02:07:42;;;;;;;5.85;5.00;;;;;;;;;;4964798;29;20166;-85
2021/04/13 02:10:18;;;;;;;5.20;4.80;;;;;;;;;;4951426;29;20190;-85
2021/04/13 02:12:46;;;;;;;6.30;5.00;;;;;;;;;;4970005;28;20154;-85
2021/04/13 02:15:17;;;;;;;4.38;4.05;;;;;;;;;;4973187;28;20182;-86
2021/04/13 02:17:49;;;;;;;4.93;4.55;;;;;;;;;;4980390;28;20214;-84
2021/04/13 02:20:18;;;;;;;5.68;5.15;;;;;;;;;;4980286;28;20157;-85
2021/04/13 02:22:48;;;;;;;5.95;5.55;;;;;;;;;;4976772;28;20231;-85
2021/04/13 02:25:20;;;;;;;4.53;4.07;;;;;;;;;;4948088;29;20213;-83
2021/04/13 02:27:47;;;;;;;6.88;5.97;;;;;;;;;;4963378;28;20205;-85
2021/04/13 02:30:15;;;;;;;6.82;6.13;;;;;;;;;;4965011;28;20538;-85
2021/04/13 02:32:46;;;;;;;6.28;5.50;;;;;;;;;;4963729;28;20185;-84
2021/04/13 02:35:18;;;;;;;6.47;5.88;;;;;;;;;;4963208;28;20284;-84
2021/04/13 02:37:51;;;;;;;6.35;5.75;;;;;;;;;;4963161;28;20198;-84
2021/04/13 02:40:19;;;;;;;7.07;5.43;;;;;;;;;;4963068;28;20169;-85
2021/04/13 02:42:46;;;;;;;6.60;6.00;;;;;;;;;;4961865;29;20205;-84
2021/04/13 02:45:30;;;;;;;9.13;7.43;;;;;;;;;;4962892;28;20253;-85
2021/04/13 02:48:01;;;;;;;6.38;5.88;;;;;;;;;;4964146;28;20169;-85
2021/04/13 02:50:28;;;;;;;8.57;6.13;;;;;;;;;;4963071;29;20189;-85
2021/04/13 02:52:54;;;;;;;6.53;6.00;;;;;;;;;;4963621;28;20184;-84
2021/04/13 02:55:23;;;;;;;6.28;5.15;;;;;;;;;;4962925;28;20268;-85
2021/04/13 02:57:50;;;;;;;8.45;6.38;;;;;;;;;;4961315;29;20213;-85
2021/04/13 03:00:23;;;;;;;7.55;6.85;;;;;;;;;;4961559;29;20193;-84
2021/04/13 03:02:55;;;;;;;9.30;7.03;;;;;;;;;;4961828;29;20218;-84
2021/04/13 03:05:24;;;;;;;6.95;6.25;;;;;;;;;;4962996;28;20186;-85
2021/04/13 03:07:50;;;;;;;7.40;6.18;;;;;;;;;;4945727;29;20209;-85
2021/04/13 03:10:18;;;;;;;9.63;7.70;;;;;;;;;;4946184;29;20260;-85
2021/04/13 03:12:47;;;;;;;8.20;7.50;;;;;;;;;;4961732;29;20566;-84
2021/04/13 03:15:15;;;;;;;6.82;6.10;;;;;;;;;;4962159;29;20196;-84
2021/04/13 03:17:49;;;;;;;9.98;7.22;;;;;;;;;;4961868;29;20204;-84
2021/04/13 03:20:19;;;;;;;8.65;7.10;;;;;;;;;;4944753;29;20272;-83
2021/04/13 03:22:45;;;;;;;6.60;6.00;;;;;;;;;;4947907;29;20169;-84
2021/04/13 03:25:13;;;;;;;6.35;5.75;;;;;;;;;;4947660;29;20190;-85
2021/04/13 03:28:09;;;;;;;;;;;;;;;;;;;;;
2021/04/13 03:30:40;;;;;;;7.65;6.80;;;;;;;;;;4962956;28;20170;-86
2021/04/13 03:33:16;;;;;;;6.53;5.93;;;;;;;;;;4950569;29;20203;-86
2021/04/13 03:35:42;;;;;;;7.10;6.60;;;;;;;;;;4973520;29;20189;-85
2021/04/13 03:38:13;;;;;;;7.97;7.20;;;;;;;;;;4961189;29;20209;-85
2021/04/13 03:40:48;;;;;;;9.57;7.40;;;;;;;;;;4957880;29;20198;-84
2021/04/13 03:43:16;;;;;;;8.40;6.93;;;;;;;;;;4958196;29;20174;-85
2021/04/13 03:45:44;;;;;;;8.00;7.22;;;;;;;;;;4975260;28;20205;-85
2021/04/13 03:48:18;;;;;;;7.25;6.43;;;;;;;;;;4957815;29;20182;-86
2021/04/13 03:50:45;;;;;;;7.20;6.53;;;;;;;;;;4953750;29;20173;-86
2021/04/13 03:53:13;;;;;;;8.65;7.95;;;;;;;;;;4954209;29;20232;-86
2021/04/13 03:55:43;;;;;;;8.63;7.28;;;;;;;;;;4959239;28;20249;-85
2021/04/13 03:58:16;;;;;;;8.98;8.18;;;;;;;;;;4981710;28;20206;-85
2021/04/13 04:01:06;;;;;;;7.93;7.22;;;;;;;;;;4982451;28;20161;-84
2021/04/13 04:03:35;;;;;;;8.98;7.93;;;;;;;;;;4977065;28;20180;-84
2021/04/13 04:06:04;;;;;;;8.15;7.35;;;;;;;;;;4966176;29;20202;-85
2021/04/13 04:08:38;;;;;;;8.20;7.25;;;;;;;;;;4950261;29;20203;-85
2021/04/13 04:11:05;;;;;;;7.13;6.43;;;;;;;;;;4966671;29;20284;-85
2021/04/13 04:13:36;;;;;;;8.35;6.90;;;;;;;;;;4967300;29;20178;-84
2021/04/13 04:16:04;;;;;;;10.50;8.70;;;;;;;;;;4968684;29;20224;-85
2021/04/13 04:18:32;;;;;;;7.38;6.70;;;;;;;;;;4967147;29;20209;-85
2021/04/13 04:21:02;;;;;;;8.07;7.15;;;;;;;;;;4967669;29;20202;-85
2021/04/13 04:23:33;;;;;;;8.77;8.02;;;;;;;;;;4967592;28;20177;-86
2021/04/13 04:26:03;;;;;;;8.90;7.93;;;;;;;;;;4966426;29;20190;-86
2021/04/13 04:28:34;;;;;;;9.15;8.35;;;;;;;;;;4969106;28;20193;-85
2021/04/13 04:31:21;;;;;;;7.97;7.20;;;;;;;;;;4951951;29;20192;-85
2021/04/13 04:33:47;;;;;;;8.30;7.65;;;;;;;;;;4969503;29;20170;-84
2021/04/13 04:36:26;;;;;;;10.32;8.02;;;;;;;;;;4967790;29;20194;-86
2021/04/13 04:38:53;;;;;;;8.15;7.40;;;;;;;;;;4956957;29;20757;-85
2021/04/13 04:41:34;;;;;;;10.13;9.23;;;;;;;;;;4978099;29;20174;-84
2021/04/13 04:44:02;;;;;;;13.70;8.05;;;;;;;;;;4976950;28;20321;-87
2021/04/13 04:46:34;;;;;;;8.50;7.70;;;;;;;;;;4967030;29;20185;-84
2021/04/13 04:49:05;;;;;;;10.20;9.25;;;;;;;;;;4952997;29;20209;-84
2021/04/13 04:51:31;;;;;;;9.90;9.00;;;;;;;;;;4951379;29;20174;-85
2021/04/13 04:54:00;;;;;;;8.40;7.60;;;;;;;;;;4951425;29;20170;-85
2021/04/13 04:56:27;;;;;;;11.30;10.15;;;;;;;;;;4967645;29;20201;-86
2021/04/13 04:58:53;;;;;;;11.75;10.55;;;;;;;;;;4950719;29;20206;-85
2021/04/13 05:01:19;;;;;;;10.27;8.50;;;;;;;;;;4969247;28;20166;-83
2021/04/13 05:03:48;;;;;;;11.77;10.68;;;;;;;;;;4967734;29;20305;-83
2021/04/13 05:06:24;;;;;;;10.70;9.68;;;;;;;;;;4967374;29;20214;-85
2021/04/13 05:08:50;;;;;;;12.73;10.23;;;;;;;;;;4951410;29;20189;-85
2021/04/13 05:11:26;;;;;;;14.20;12.05;;;;;;;;;;4967150;28;20298;-84
2021/04/13 05:13:53;;;;;;;11.73;10.63;;;;;;;;;;4966724;29;20561;-84
2021/04/13 05:16:20;;;;;;;15.65;10.60;;;;;;;;;;4966599;28;20549;-86
2021/04/13 05:18:54;;;;;;;11.65;10.60;;;;;;;;;;4966834;28;20240;-85
2021/04/13 05:21:24;;;;;;;11.93;10.73;;;;;;;;;;4966469;28;20200;-85
2021/04/13 05:24:58;;;;;;;11.48;10.07;;;;;;;;;;4966912;29;20198;-86
2021/04/13 05:27:05;;;;;;;10.70;9.80;;;;;;;;;;4962381;28;20651;-85
2021/04/13 05:33:54;;;;;;;;;;;;;;;;;;;;;
2021/04/13 05:36:41;;;;;;;8.70;7.90;;;;;;;;;;4927863;28;20217;-86
2021/04/13 05:40:14;;;;;;;;;;;;;;;;;;;;;
2021/04/13 05:42:56;;;;;;;9.40;8.70;;;;;;;;;;4917712;29;20419;-86
2021/04/13 05:45:34;;;;;;;12.50;11.33;;;;;;;;;;4929337;29;20467;-86
2021/04/13 05:48:04;;;;;;;11.50;10.27;;;;;;;;;;4967169;29;20386;-85
2021/04/13 05:50:32;;;;;;;8.30;7.53;;;;;;;;;;4966861;28;20502;-84
2021/04/13 05:52:58;;;;;;;10.67;9.63;;;;;;;;;;4967756;29;20427;-84
2021/04/13 05:55:30;;;;;;;11.47;7.90;;;;;;;;;;4971303;28;20449;-84
2021/04/13 05:58:01;;;;;;;8.30;7.00;;;;;;;;;;4960410;29;20457;-84
2021/04/13 06:00:54;;;;;;;11.17;10.27;;;;;;;;;;4960107;29;20459;-83
2021/04/13 06:03:28;;;;;;;9.60;8.63;;;;;;;;;;4950894;29;20456;-86
2021/04/13 06:05:55;;;;;;;8.60;7.70;;;;;;;;;;4950651;29;20445;-83
2021/04/13 06:09:20;;;;;;;;;;;;;;;;;;;;;
2021/04/13 06:11:36;;;;;;;8.80;8.00;;;;;;;;;;4965908;28;20500;-84
2021/04/13 06:14:03;;;;;;;7.43;6.83;;;;;;;;;;4965427;28;20424;-85
2021/04/13 06:16:35;;;;;;;8.43;7.70;;;;;;;;;;4949483;29;20449;-85
2021/04/13 06:19:13;;;;;;;9.07;8.23;;;;;;;;;;4964330;29;20457;-86
2021/04/13 06:21:42;;;;;;;8.17;7.57;;;;;;;;;;4965156;28;20427;-83
2021/04/13 06:24:11;;;;;;;9.80;8.37;;;;;;;;;;4963475;29;20488;-86
2021/04/13 06:26:41;;;;;;;8.60;7.70;;;;;;;;;;4964475;28;20567;-84
2021/04/13 06:29:24;;;;;;;8.67;6.40;;;;;;;;;;4952692;29;20414;-85
2021/04/13 06:31:50;;;;;;;13.43;8.50;;;;;;;;;;4950434;29;20425;-86
2021/04/13 06:34:23;;;;;;;9.10;6.80;;;;;;;;;;4948244;29;20931;-86
2021/04/13 06:36:49;;;;;;;7.33;6.63;;;;;;;;;;4948734;29;20430;-85
2021/04/13 06:39:15;;;;;;;7.97;5.43;;;;;;;;;;4948363;29;20465;-85
2021/04/13 06:41:41;;;;;;;7.67;6.97;;;;;;;;;;4949595;29;20425;-87
2021/04/13 06:44:19;;;;;;;6.70;6.10;;;;;;;;;;4969353;28;20593;-86
2021/04/13 06:47:04;;;;;;;6.00;5.50;;;;;;;;;;4967113;29;20421;-86
2021/04/13 06:49:49;;;;;;;8.10;7.30;;;;;;;;;;4948218;29;20464;-84
2021/04/13 06:52:35;;;;;;;10.53;7.10;;;;;;;;;;4947665;29;20413;-84
2021/04/13 06:55:37;;;;;;;7.60;6.80;;;;;;;;;;4947807;29;20453;-84
2021/04/13 06:58:30;;;;;;;8.48;7.60;;;;;;;;;;4963296;29;20437;-86
2021/04/13 07:01:20;;;;;;;8.45;7.85;;;5.60;99.90;;;;;;4948859;29;20229;-85
2021/04/13 07:20:36;;;;;;;8.23;6.85;;;;;;;;;;5700515;23;20208;-85
2021/04/13 07:23:38;;;;;;;7.30;6.60;;;;;;;;;;4991720;28;20189;-85
2021/04/13 07:26:31;;;;;;;6.78;5.88;;;;;;;;;;4941657;29;20263;-85
2021/04/13 07:29:03;;;;;;;6.50;5.80;;;;;;;;;;4962510;29;20193;-84
2021/04/13 07:31:40;;;;;;;7.38;6.70;;;;;;;;;;4962161;29;20528;-85
2021/04/13 07:34:08;;;;;;;6.88;5.95;;;;;;;;;;4946696;28;20186;-84
2021/04/13 07:36:54;;;;;;;7.45;6.85;;;;;;;;;;4961976;28;20313;-85
2021/04/13 07:39:22;;;;;;;8.50;6.43;;;;;;;;;;4958023;29;20220;-84
2021/04/13 07:42:06;;;;;;;5.80;5.30;;;;;;;;;;4964580;28;20231;-86
2021/04/13 07:44:32;;;;;;;6.78;5.97;;;;;;;;;;4964884;29;20197;-85
2021/04/13 07:47:07;;;;;;;7.18;6.15;;;;;;;;;;4964344;28;20171;-85
2021/04/13 07:49:47;;;;;;;6.55;5.80;;;;;;;;;;4965555;29;20185;-85
2021/04/13 07:52:41;;;;;;;8.32;5.65;;;;;;;;;;4964081;29;20253;-86
2021/04/13 07:55:46;;;;;;;8.90;4.80;;;;;;;;;;4964165;28;20285;-85
2021/04/13 08:01:34;;;;;;;5.85;5.22;;;;;;;;;;4980423;28;20201;-86
2021/04/13 08:04:07;;;;;;;4.72;4.30;;;;;;;;;;4964783;28;20178;-86
2021/04/13 08:07:01;;;;;;;5.95;5.45;;;;;;;;;;4948311;29;20270;-86
2021/04/13 08:09:58;;;;;;;5.82;4.60;;;;;;;;;;4961371;29;20193;-85
2021/04/13 08:12:34;;;;;;;8.50;5.72;;;;;;;;;;4959104;28;20190;-84
2021/04/13 08:15:04;;;;;;;5.47;4.45;;;;;;;;;;4961683;28;20198;-85
2021/04/13 08:18:11;;;;;;;6.10;5.10;;;5.10;99.90;;;;;;4961721;28;20189;-86
2021/04/13 08:20:45;;;;;;;11.38;8.23;;;7.30;99.90;;;;;;4946683;29;20429;-86
2021/04/13 08:23:36;;;;;;;5.65;4.55;;;7.60;99.90;;;;;;4964102;29;20188;-85
2021/04/13 08:26:31;;;;;;;5.27;4.20;;;7.50;99.90;;;;;;4964358;28;20194;-83
2021/04/13 08:29:12;;;;;;;6.80;5.20;;;7.20;99.90;;;;;;4960697;29;20429;-83
2021/04/13 08:34:46;;;;;;;6.43;5.83;;;7.20;99.90;;;;;;4964849;28;20448;-84
2021/04/13 08:37:27;;;;;;;10.23;6.00;;;7.30;99.90;;;;;;4966126;28;20426;-83
2021/04/13 08:40:10;;;;;;;5.67;3.20;;;7.40;99.90;;;;;;4961854;28;20460;-84
2021/04/13 08:42:58;;;;;;;;;;;;;;;;;;;;;
2021/04/13 08:45:54;;;;;;;;;;;;;;;;;;;;;
2021/04/13 08:48:32;;;;;;;8.20;6.23;;;7.00;99.90;;;;;;4967104;29;20883;-86
2021/04/13 08:51:11;;;;;;;13.63;5.18;;;7.30;99.90;;;;;;4981487;28;20460;-86
2021/04/13 08:53:48;;;;;;;7.57;6.05;;;7.60;99.90;;;;;;4969896;29;20197;-86
2021/04/13 08:56:30;;;;;;;4.37;3.97;;;7.90;99.90;;;;;;4962773;29;20202;-84
2021/04/13 08:59:23;;;;;;;;;;;;;;;;;;;;;
2021/04/13 09:02:19;;;;;;;;;;;;;;;;;;;;;
2021/04/13 09:05:25;;;;;;;6.10;4.27;;;8.70;99.90;;;;;;4964998;28;20497;-84
2021/04/13 09:08:05;;;;;;;4.80;3.47;;;8.80;99.90;;;;;;4948755;29;20425;-83
2021/04/13 09:10:40;;;;;;;4.73;3.57;;;8.80;99.90;;;;;;4948690;29;20422;-85
2021/04/13 09:13:23;;;;;;;4.23;3.10;;;9.10;99.90;;;;;;4947006;29;20989;-83
2021/04/13 09:16:11;;;;;;;4.50;3.23;;;9.70;99.90;;;;;;4962109;29;20446;-82
2021/04/13 09:18:48;;;;;;;4.03;3.63;;;9.10;99.90;;;;;;4964897;28;20437;-84
2021/04/13 09:21:35;;;;;;;6.17;3.20;;;8.70;99.90;;;;;;4963810;28;20425;-85
2021/04/13 09:24:54;;;;;;;;;;;;;;;;;;;;;
2021/04/13 09:27:48;;;;;;;5.33;3.77;;;8.10;99.90;;;;;;4966098;28;20418;-84
2021/04/13 09:30:47;;;;;;;8.10;5.93;;;7.90;99.90;;;;;;4966679;28;20817;-85
2021/04/13 09:33:25;;;;;;;3.60;3.40;;;8.20;99.90;;;;;;4974042;28;20512;-85
2021/04/13 09:36:16;;;;;;;3.73;3.10;;;8.10;99.90;;;;;;4953660;29;20473;-84
2021/04/13 09:38:54;;;;;;;3.47;3.23;;;7.80;99.90;;;;;;4954513;29;20556;-84
2021/04/13 09:41:50;;;;;;;4.60;4.13;;;8.10;99.90;;;;;;4970799;28;20382;-83
2021/04/13 09:45:04;;;;;;;5.53;3.13;;;8.40;99.90;;;;;;4964381;28;20433;-86
2021/04/13 09:47:59;;;;;;;4.17;2.67;;;8.20;99.90;;;;;;4963565;28;20509;-85
2021/04/13 09:50:38;;;;;;;7.17;2.93;;;8.60;99.90;;;;;;4946295;29;20420;-86
2021/04/13 09:53:47;;;;;;;2.87;2.67;;;8.50;99.90;;;;;;4950069;29;20840;-85
2021/04/13 09:56:51;;;;;;;4.13;2.90;;;8.50;99.90;;;;;;4946527;29;20504;-86
2021/04/13 09:59:26;;;;;;;2.90;2.57;;;8.50;99.90;;;;;;4961402;28;20492;-85
2021/04/13 10:02:03;;;;;;;4.17;3.10;;;8.90;99.90;;;;;;4947823;29;20421;-85
2021/04/13 10:04:53;;;;;;;3.83;3.17;;;9.00;99.90;;;;;;4948119;28;20950;-85
2021/04/13 10:08:22;;;;;;;3.90;3.60;;;9.40;99.90;;;;;;4965534;29;20901;-85
2021/04/13 10:11:09;;;;;;;5.23;3.97;;;9.50;99.90;;;;;;4972114;28;20969;-86
2021/04/13 10:13:44;;;;;;;3.23;2.90;;;9.30;99.90;;;;;;4975586;28;20420;-86
2021/04/13 10:17:04;;;;;;;4.37;3.97;;;8.60;99.90;;;;;;4950439;29;20447;-87
2021/04/13 10:20:01;;;;;;;4.17;3.53;;;8.30;99.90;;;;;;4966052;28;20469;-82
2021/04/13 10:22:42;;;;;;;3.50;3.20;;;8.20;99.90;;;;;;4984908;28;20445;-85
2021/04/13 10:25:46;;;;;;;3.33;3.03;;;8.80;99.90;;;;;;4979259;28;20533;-85
2021/04/13 10:28:49;;;;;;;6.30;3.57;;;9.40;99.90;;;;;;4963669;28;20521;-85
2021/04/13 10:31:44;;;;;;;4.87;2.90;;;9.50;99.90;;;;;;4963994;29;20693;-85
2021/04/13 10:34:31;;;;;;;6.73;4.27;;;9.60;99.90;;;;;;4989085;28;20473;-85
2021/04/13 10:37:13;;;;;;;4.93;3.50;;;9.70;99.90;;;;;;4978351;28;20425;-84
2021/04/13 10:39:40;;;;;;;8.23;4.40;;;10.00;99.90;;;;;;4993404;28;20465;-86
2021/04/13 10:42:09;;;;;;;3.87;2.70;;;10.50;99.90;;;;;;4976789;28;20410;-84
2021/04/13 10:45:15;;;;;;;5.60;3.60;;;10.60;99.90;;;;;;4966775;28;20448;-86
2021/04/13 10:48:05;;;;;;;6.73;4.37;;;10.10;99.90;;;;;;4949495;29;20406;-85
2021/04/13 10:50:52;;;;;;;5.00;4.50;;;9.60;99.90;;;;;;4948890;29;20437;-86
2021/04/13 10:53:20;;;;;;;3.57;2.63;;;9.60;99.90;;;;;;4964773;28;20402;-85
2021/04/13 10:55:59;;;;;;;9.17;3.40;;;9.10;99.90;;;;;;4967594;28;20425;-85
2021/04/13 10:58:44;;;;;;;5.10;3.33;;;8.70;99.90;;;;;;4982789;28;20468;-85
2021/04/13 11:01:31;;;;;;;3.40;3.10;;;8.70;99.90;;;;;;4969292;29;20424;-85
2021/04/13 11:04:05;;;;;;;4.70;2.57;;;8.90;99.90;;;;;;4967256;28;20417;-85
2021/04/13 11:06:32;;;;;;;7.83;3.90;;;;;;;;;;4949299;29;20561;-84
2021/04/13 11:09:16;;;;;;;3.97;3.23;;;;;;;;;;4965574;29;20439;-82
2021/04/13 11:12:05;;;;;;;4.20;2.63;;;;;;;;;;4946722;29;20429;-85
2021/04/13 11:14:41;;;;;;;4.67;3.50;;;;;;;;;;4947360;29;20482;-85
2021/04/13 11:17:29;;;;;;;10.03;3.57;;;;;;;;;;4947217;29;20444;-84
2021/04/13 11:19:55;;;;;;;5.67;3.10;;;;;;;;;;4961998;28;20465;-85
2021/04/13 11:22:40;;;;;;;4.57;3.07;;;;;;;;;;4964227;29;20378;-86
2021/04/13 11:25:15;;;;;;;6.70;3.07;;;;;;;;;;4963798;28;20429;-84
2021/04/13 11:27:53;;;;;;;4.57;3.10;;;;;;;;;;4949737;29;20461;-84
2021/04/13 11:30:19;;;;;;;4.43;2.40;;;;;;;;;;4948576;29;20441;-86
2021/04/13 11:32:51;;;;;;;5.43;2.90;;;;;;;;;;4948402;29;20418;-85
2021/04/13 11:35:39;;;;;;;3.57;2.80;;;;;;;;;;4964942;28;20432;-86
2021/04/13 11:38:13;;;;;;;6.70;3.10;;;;;;;;;;4948778;29;20953;-85
2021/04/13 11:40:46;;;;;;;7.97;3.93;;;;;;;;;;4966135;28;20510;-85
2021/04/13 11:43:14;;;;;;;5.73;3.40;;;;;;;;;;4976449;28;20549;-84
2021/04/13 11:45:40;;;;;;;10.93;4.27;;;;;;;;;;4976838;28;20496;-84
2021/04/13 11:48:13;;;;;;;4.70;2.33;;;;;;;;;;4975737;28;20418;-88
2021/04/13 11:50:46;;;;;;;5.30;3.07;;;;;;;;;;4976602;29;20404;-86
2021/04/13 11:53:14;;;;;;;2.37;1.97;;;;;;;;;;4975953;28;20409;-83
2021/04/13 11:55:44;;;;;;;3.50;1.90;;;;;;;;;;4977879;28;20786;-84
2021/04/13 11:58:17;;;;;;;6.30;3.10;;;;;;;;;;4962667;29;20457;-84
2021/04/13 12:00:48;;;;;;;4.83;2.47;;;;;;;;;;4979335;29;20393;-84
2021/04/13 12:03:35;;;;;;;6.97;3.13;;;;;;;;;;4976852;28;20437;-86
2021/04/13 12:06:04;;;;;;;6.77;2.57;;;;;;;;;;4968302;28;20526;-83
2021/04/13 12:08:30;;;;;;;3.60;2.27;;;;;;;;;;4964911;28;20460;-86
2021/04/13 12:11:06;;;;;;;3.83;2.47;;;;;;;;;;4963441;28;20770;-86
2021/04/13 12:13:37;;;;;;;4.30;2.87;;;;;;;;;;4966896;28;20449;-85
2021/04/13 12:16:04;;;;;;;4.10;1.90;;;;;;;;;;4973698;28;20429;-83
2021/04/13 12:18:36;;;;;;;4.97;3.10;;;;;;;;;;4979407;28;20461;-83
2021/04/13 12:21:22;;;;;;;6.73;3.47;;;;;;;;;;4979955;28;20480;-83
2021/04/13 12:23:52;;;;;;;6.00;2.40;;;;;;;;;;4994110;28;20429;-84
2021/04/13 12:26:30;;;;;;;4.33;2.50;;;;;;;;;;4966056;28;20444;-84
2021/04/13 12:28:56;;;;;;;6.67;3.10;;;;;;;;;;4949151;29;20418;-85
2021/04/13 12:31:31;;;;;;;5.23;2.47;;;;;;;;;;4964641;28;20974;-83
2021/04/13 12:34:05;;;;;;;5.47;2.00;;;;;;;;;;4963822;28;20378;-85
2021/04/13 12:36:41;;;;;;;4.27;2.57;;;;;;;;;;4964401;29;20406;-84
2021/04/13 12:39:07;;;;;;;3.53;2.57;;;;;;;;;;4964911;29;20567;-85
2021/04/13 12:41:53;;;;;;;2.80;1.83;;;;;;;;;;4966627;28;20417;-84
2021/04/13 12:44:19;;;;;;;2.63;1.60;;;;;;;;;;4965555;28;20461;-85
2021/04/13 12:46:50;;;;;;;2.60;2.40;;;;;;;;;;4966688;29;20401;-83
2021/04/13 12:49:16;;;;;;;2.23;1.93;;;;;;;;;;4950189;29;20998;-84
2021/04/13 12:51:51;;;;;;;3.10;2.33;;;;;;;;;;4949612;29;20480;-85
2021/04/13 12:54:24;;;;;;;3.93;2.50;;;;;;;;;;4967005;28;20441;-86
2021/04/13 12:57:13;;;;;;;3.40;2.60;;;;;;;;;;4966883;29;20429;-88
2021/04/13 12:59:42;;;;;;;7.40;2.90;;;;;;;;;;4963970;29;20454;-87
2021/04/13 13:02:30;;;;;;;4.30;2.67;;;;;;;;;;4965323;29;20414;-83
2021/04/13 13:04:59;;;;;;;3.13;2.17;;;;;;;;;;4964606;28;20924;-86
2021/04/13 13:07:29;;;;;;;6.93;2.80;;;;;;;;;;4962521;29;20402;-85
2021/04/13 13:09:56;;;;;;;3.23;2.53;;;;;;;;;;4947391;29;20480;-85
2021/04/13 13:12:26;;;;;;;4.90;2.50;;;;;;;;;;4966007;28;20420;-85
2021/04/13 13:15:00;;;;;;;11.57;8.30;;;;;;;;;;4965423;28;20429;-84
2021/04/13 13:17:50;;;;;;;7.60;6.80;;;;;;;;;;4968607;29;20390;-84
2021/04/13 13:20:27;;;;;;;5.73;3.43;;;;;;;;;;4969150;28;20452;-86
2021/04/13 13:22:55;;;;;;;3.30;2.50;;;;;;;;;;4974498;29;20444;-85
2021/04/13 13:25:25;;;;;;;2.43;2.17;;;;;;;;;;4953586;29;20446;-86
2021/04/13 13:27:52;;;;;;;5.97;3.30;;;;;;;;;;4966599;29;20432;-86
2021/04/13 13:30:21;;;;;;;5.80;3.10;;;;;;;;;;4968719;29;20397;-86
2021/04/13 13:32:50;;;;;;;7.87;4.63;;;;;;;;;;4967139;29;20774;-86
2021/04/13 13:35:18;;;;;;;3.27;2.07;;;;;;;;;;4966313;28;20413;-86
2021/04/13 13:37:47;;;;;;;3.90;1.97;;;;;;;;;;4966111;29;20425;-84
2021/04/13 13:40:16;;;;;;;2.30;2.10;;;;;;;;;;4965041;28;20490;-86
2021/04/13 13:42:43;;;;;;;3.10;2.30;;;;;;;;;;4950723;29;20453;-85
2021/04/13 13:45:21;;;;;;;4.03;2.67;;;;;;;;;;4966242;28;20930;-85
2021/04/13 13:47:50;;;;;;;4.37;2.27;;;;;;;;;;4965586;29;20378;-85
2021/04/13 13:50:20;;;;;;;4.73;1.80;;;;;;;;;;4967188;29;20410;-86
2021/04/13 13:52:48;;;;;;;2.57;2.37;;;;;;;;;;4966561;29;20441;-85
2021/04/13 13:55:17;;;;;;;5.87;2.23;;;;;;;;;;4953337;29;20461;-85
2021/04/13 13:58:04;;;;;;;2.80;1.77;;;;;;;;;;4957994;29;20564;-86
2021/04/13 14:00:33;;;;;;;5.00;2.70;;;;;;;;;;4977222;28;20430;-84
2021/04/13 14:03:10;;;;;;;5.37;2.17;;;;;;;;;;4962178;29;20441;-86
2021/04/13 14:06:13;;;;;;;8.30;2.70;;;;;;;;;;4968503;28;20441;-85
2021/04/13 14:08:41;;;;;;;5.23;2.00;;;;;;;;;;4947946;29;20490;-86
2021/04/13 14:11:34;;;;;;;6.17;2.93;;;;;;;;;;4963591;29;20827;-83
2021/04/13 14:14:02;;;;;;;4.60;1.77;;;;;;;;;;4961891;28;20493;-85
2021/04/13 14:19:22;;;;;;;6.43;2.63;;;;;;;;;;4963465;28;20548;-85
2021/04/13 14:21:49;;;;;;;2.40;1.73;;;;;;;;;;4962310;28;20494;-84
2021/04/13 14:24:21;;;;;;;5.23;2.10;;;;;;;;;;4964892;28;20423;-85
2021/04/13 14:26:48;;;;;;;3.57;2.00;;;;;;;;;;4964918;29;20766;-85
2021/04/13 14:29:17;;;;;;;4.40;2.67;;;;;;;;;;4963817;28;20421;-85
2021/04/13 14:31:44;;;;;;;6.70;3.17;;;;;;;;;;4962948;28;20433;-85
2021/04/13 14:34:11;;;;;;;3.63;2.60;;;;;;;;;;4964385;28;20409;-85
2021/04/13 14:36:37;;;;;;;4.43;1.73;;;;;;;;;;4964695;29;20417;-85
2021/04/13 14:39:07;;;;;;;5.20;2.20;;;;;;;;;;4964880;29;20460;-85
2021/04/13 14:41:35;;;;;;;4.30;2.33;;;;;;;;;;4964871;29;20755;-86
2021/04/13 14:44:01;;;;;;;4.80;2.53;;;;;;;;;;4966495;28;20493;-84
2021/04/13 14:46:36;;;;;;;4.37;2.83;;;;;;;;;;4966074;29;20394;-85
2021/04/13 14:49:06;;;;;;;3.60;2.50;;;;;;;;;;4965931;28;20440;-85
2021/04/13 14:51:33;;;;;;;5.70;2.30;;;;;;;;;;4948625;28;20433;-84
2021/04/13 14:54:05;;;;;;;5.70;3.43;;;;;;;;;;4964681;28;20406;-84
2021/04/13 14:56:32;;;;;;;2.03;1.80;;;;;;;;;;4980234;28;20417;-84
2021/04/13 14:58:58;;;;;;;4.40;2.57;;;;;;;;;;4965862;28;20491;-84
2021/04/13 15:01:24;;;;;;;3.37;2.70;;;;;;;;;;4966855;29;20416;-84
2021/04/13 15:03:51;;;;;;;3.03;1.73;;;;;;;;;;4968849;29;20477;-85
2021/04/13 15:06:17;;;;;;;6.63;2.80;;;;;;;;;;4966627;28;20445;-85
2021/04/13 15:08:44;;;;;;;10.33;3.17;;;;;;;;;;4967423;28;20418;-85
2021/04/13 15:11:16;;;;;;;5.47;2.37;;;;;;;;;;4968236;28;20479;-85
2021/04/13 15:13:43;;;;;;;6.07;2.20;;;;;;;;;;4984019;28;20501;-86
2021/04/13 15:16:10;;;;;;;6.07;2.03;;;;;;;;;;4952949;29;20448;-84
2021/04/13 15:18:36;;;;;;;3.67;1.87;;;;;;;;;;4955670;29;20465;-86
2021/04/13 15:21:03;;;;;;;2.97;1.70;;;;;;;;;;4976192;28;20437;-84
2021/04/13 15:23:29;;;;;;;9.20;3.13;;;;;;;;;;4976052;28;20409;-85
2021/04/13 15:25:56;;;;;;;3.60;1.87;;;;;;;;;;4976443;28;20437;-85
2021/04/13 15:28:22;;;;;;;4.27;2.00;;;;;;;;;;4975353;28;20500;-86
2021/04/13 15:30:52;;;;;;;3.03;2.13;;;;;;;;;;4980157;28;20417;-84
2021/04/13 15:33:42;;;;;;;4.80;2.13;;;;;;;;;;4980695;28;20440;-85
2021/04/13 15:36:13;;;;;;;6.00;2.00;;;;;;;;;;4979539;28;20495;-86
2021/04/13 15:38:42;;;;;;;3.83;2.50;;;;;;;;;;4980775;28;20485;-84
2021/04/13 15:41:17;;;;;;;5.93;2.70;;;;;;;;;;4980664;28;20425;-86
2021/04/13 15:43:48;;;;;;;4.27;2.47;;;;;;;;;;4979483;28;20834;-85
2021/04/13 15:46:27;;;;;;;2.80;2.03;;;;;;;;;;4977375;28;20480;-85
2021/04/13 15:49:00;;;;;;;4.30;1.77;;;;;;;;;;4971090;28;20448;-85
2021/04/13 15:51:26;;;;;;;2.33;1.80;;;;;;;;;;4969827;28;20400;-85
2021/04/13 15:53:53;;;;;;;3.27;1.50;;;;;;;;;;4968701;28;20416;-86